Time;durP1;ratioP1;P1;durP2;ratioP2;P2;SDS_P1;SDS_P2;PMS_P1;PMS_P2;Temp;Humidity;BMP_temperature;BMP_pressure;BME280_temperature;BME280_humidity;BME280_pressure;Samples;Min_cycle;Max_cycle;Signal;HPM_P1;HPM_P2
2021/10/18 00:00:09;;;;;;;0.00;0.00;;;9.30;60.40;;;;;;5073467;28;20028;-76
2021/10/18 00:02:35;;;;;;;0.00;0.00;;;9.20;60.40;;;;;;5073087;28;20044;-76
2021/10/18 00:05:01;;;;;;;0.00;0.00;;;9.20;60.50;;;;;;5072803;28;20059;-77
2021/10/18 00:07:26;;;;;;;0.00;0.00;;;9.10;60.50;;;;;;5073263;28;20060;-76
2021/10/18 00:09:52;;;;;;;0.00;0.00;;;9.10;60.60;;;;;;5072631;28;20029;-77
2021/10/18 00:12:18;;;;;;;0.00;0.00;;;9.10;60.70;;;;;;5055252;28;20029;-76
2021/10/18 00:14:44;;;;;;;0.00;0.00;;;9.00;60.70;;;;;;5076456;28;20100;-75
2021/10/18 00:17:09;;;;;;;0.00;0.00;;;9.00;60.80;;;;;;5076741;28;20028;-75
2021/10/18 00:19:35;;;;;;;0.00;0.00;;;9.00;60.90;;;;;;5076353;28;20380;-76
2021/10/18 00:22:01;;;;;;;0.00;0.00;;;9.00;60.90;;;;;;5076435;28;20024;-75
2021/10/18 00:24:27;;;;;;;0.00;0.00;;;9.00;61.00;;;;;;5076810;28;20029;-77
2021/10/18 00:26:53;;;;;;;0.00;0.00;;;9.10;61.30;;;;;;5076334;28;20115;-77
2021/10/18 00:29:19;;;;;;;0.00;0.00;;;9.10;61.00;;;;;;5075912;28;20125;-77
2021/10/18 00:31:44;;;;;;;0.00;0.00;;;9.20;60.80;;;;;;5076332;28;20031;-77
2021/10/18 00:34:10;;;;;;;0.00;0.00;;;9.30;60.70;;;;;;5076203;28;20032;-76
2021/10/18 00:36:36;;;;;;;0.00;0.00;;;9.30;60.50;;;;;;5076125;28;20033;-76
2021/10/18 00:39:02;;;;;;;0.00;0.00;;;9.40;60.40;;;;;;5075946;28;20082;-78
2021/10/18 00:41:27;;;;;;;0.00;0.00;;;9.50;60.20;;;;;;5058362;28;20071;-77
2021/10/18 00:43:55;;;;;;;0.00;0.00;;;9.60;60.10;;;;;;5076162;28;20463;-77
2021/10/18 00:46:22;;;;;;;0.00;0.00;;;9.70;59.80;;;;;;5075561;28;20090;-77
2021/10/18 00:48:50;;;;;;;0.00;0.00;;;9.80;59.60;;;;;;5075837;28;20472;-76
2021/10/18 00:51:17;;;;;;;0.00;0.00;;;9.80;59.30;;;;;;5074699;28;20024;-77
2021/10/18 00:53:44;;;;;;;0.00;0.00;;;9.90;59.10;;;;;;5057853;28;20627;-76
2021/10/18 00:56:11;;;;;;;0.00;0.00;;;10.00;58.90;;;;;;5075616;28;20103;-77
2021/10/18 00:58:37;;;;;;;0.00;0.00;;;10.10;58.80;;;;;;5075427;28;20465;-75
2021/10/18 01:01:04;;;;;;;0.00;0.00;;;10.10;58.40;;;;;;5075649;28;20107;-75
2021/10/18 01:03:30;;;;;;;0.00;0.00;;;10.10;58.10;;;;;;5075574;28;20067;-76
2021/10/18 01:05:56;;;;;;;0.00;0.00;;;10.10;57.90;;;;;;5075710;28;20025;-76
2021/10/18 01:08:22;;;;;;;0.00;0.00;;;10.10;57.80;;;;;;5075278;28;20123;-76
2021/10/18 01:10:48;;;;;;;0.00;0.00;;;10.10;57.80;;;;;;5074735;28;20107;-77
2021/10/18 01:13:14;;;;;;;0.00;0.00;;;10.10;57.70;;;;;;5075282;28;20587;-77
2021/10/18 01:15:39;;;;;;;0.00;0.00;;;10.10;57.70;;;;;;5074399;28;20039;-77
2021/10/18 01:18:05;;;;;;;0.00;0.00;;;10.10;57.70;;;;;;5075463;28;20055;-78
2021/10/18 01:20:33;;;;;;;0.00;0.00;;;10.00;57.50;;;;;;5075025;28;20052;-76
2021/10/18 01:22:59;;;;;;;0.00;0.00;;;10.00;57.60;;;;;;5074731;28;20025;-76
2021/10/18 01:25:26;;;;;;;0.00;0.00;;;9.90;57.60;;;;;;5074537;28;20028;-76
2021/10/18 01:27:51;;;;;;;0.00;0.00;;;9.90;57.80;;;;;;5075360;28;20517;-77
2021/10/18 01:30:18;;;;;;;0.00;0.00;;;9.90;57.90;;;;;;5075127;28;20028;-77
2021/10/18 01:32:44;;;;;;;0.00;0.00;;;9.80;57.90;;;;;;5074925;28;20030;-77
2021/10/18 01:35:11;;;;;;;0.00;0.00;;;9.80;58.10;;;;;;5075378;28;20052;-77
2021/10/18 01:37:37;;;;;;;0.00;0.00;;;9.70;58.20;;;;;;5056917;28;20111;-76
2021/10/18 01:40:11;;;;;;;0.00;0.00;;;9.70;58.30;;;;;;5074723;28;20032;-77
2021/10/18 01:42:37;;;;;;;0.00;0.00;;;9.60;58.40;;;;;;5075312;28;20033;-77
2021/10/18 01:45:04;;;;;;;0.00;0.00;;;9.50;58.70;;;;;;5075208;28;20353;-77
2021/10/18 01:47:30;;;;;;;0.00;0.00;;;9.50;58.80;;;;;;5074630;28;20381;-77
2021/10/18 01:49:56;;;;;;;0.00;0.00;;;9.50;58.90;;;;;;5057046;28;20043;-77
2021/10/18 01:52:23;;;;;;;0.00;0.00;;;9.40;58.90;;;;;;5074321;28;20021;-77
2021/10/18 01:54:49;;;;;;;0.00;0.00;;;9.40;59.10;;;;;;5074428;28;20044;-77
2021/10/18 01:57:14;;;;;;;0.00;0.00;;;9.30;59.20;;;;;;5074307;28;20461;-77
2021/10/18 01:59:40;;;;;;;0.00;0.00;;;9.30;59.40;;;;;;5074666;28;20039;-77
2021/10/18 02:02:06;;;;;;;0.00;0.00;;;9.20;59.50;;;;;;5074327;28;20107;-77
2021/10/18 02:04:32;;;;;;;0.00;0.00;;;9.20;59.60;;;;;;5074361;28;20047;-77
2021/10/18 02:06:58;;;;;;;0.00;0.00;;;9.20;59.80;;;;;;5074810;28;20028;-76
2021/10/18 02:09:24;;;;;;;0.00;0.00;;;9.10;59.80;;;;;;5074550;28;20481;-77
2021/10/18 02:11:50;;;;;;;0.00;0.00;;;9.10;60.00;;;;;;5074425;28;20067;-77
2021/10/18 02:14:16;;;;;;;0.00;0.00;;;9.10;60.10;;;;;;5074078;28;20033;-77
2021/10/18 02:16:43;;;;;;;0.00;0.00;;;9.10;60.30;;;;;;5056625;28;20028;-77
2021/10/18 02:19:08;;;;;;;0.00;0.00;;;9.00;60.80;;;;;;5074133;28;20051;-76
2021/10/18 02:21:35;;;;;;;0.00;0.00;;;9.00;60.30;;;;;;5074495;28;20445;-76
2021/10/18 02:24:01;;;;;;;0.00;0.00;;;9.00;60.30;;;;;;5056270;28;20070;-77
2021/10/18 02:26:27;;;;;;;0.00;0.00;;;9.00;60.40;;;;;;5055891;28;20040;-77
2021/10/18 02:28:52;;;;;;;0.00;0.00;;;8.90;60.40;;;;;;5073865;28;20024;-77
2021/10/18 02:31:18;;;;;;;0.00;0.00;;;8.90;60.50;;;;;;5074074;28;20060;-76
2021/10/18 02:33:44;;;;;;;0.00;0.00;;;8.90;60.50;;;;;;5056405;28;20115;-77
2021/10/18 02:36:10;;;;;;;0.00;0.00;;;8.90;60.60;;;;;;5073500;28;20028;-77
2021/10/18 02:38:38;;;;;;;0.00;0.00;;;8.90;60.70;;;;;;5073786;28;20033;-76
2021/10/18 02:41:04;;;;;;;0.00;0.00;;;8.90;60.80;;;;;;5073793;28;20056;-76
2021/10/18 02:43:30;;;;;;;0.00;0.00;;;8.80;60.80;;;;;;5073713;28;20091;-77
2021/10/18 02:45:55;;;;;;;0.00;0.00;;;8.90;60.90;;;;;;5073514;28;20028;-75
2021/10/18 02:48:21;;;;;;;0.00;0.00;;;8.80;60.90;;;;;;5055928;28;20062;-78
2021/10/18 02:50:47;;;;;;;0.00;0.00;;;8.80;60.90;;;;;;5073862;28;20032;-77
2021/10/18 02:53:12;;;;;;;0.00;0.00;;;8.80;61.00;;;;;;5055838;28;20504;-77
2021/10/18 02:55:38;;;;;;;0.00;0.00;;;8.80;61.00;;;;;;5055898;28;20020;-77
2021/10/18 02:58:04;;;;;;;0.00;0.00;;;8.80;61.10;;;;;;5073739;28;20024;-76
2021/10/18 03:00:30;;;;;;;0.00;0.00;;;8.70;61.10;;;;;;5073666;28;20475;-75
2021/10/18 03:02:55;;;;;;;0.00;0.00;;;8.80;61.20;;;;;;5055887;28;20032;-76
2021/10/18 03:05:22;;;;;;;0.00;0.00;;;8.80;61.20;;;;;;5073241;28;20123;-77
2021/10/18 03:07:51;;;;;;;0.00;0.00;;;8.80;61.20;;;;;;5055639;28;20028;-77
2021/10/18 03:10:18;;;;;;;0.00;0.00;;;8.80;61.20;;;;;;5073581;28;20120;-77
2021/10/18 03:12:44;;;;;;;0.00;0.00;;;8.80;61.20;;;;;;5072604;28;20028;-77
2021/10/18 03:15:10;;;;;;;0.00;0.00;;;8.80;61.20;;;;;;5073425;28;20183;-76
2021/10/18 03:17:36;;;;;;;0.00;0.00;;;8.80;61.20;;;;;;5073521;28;20028;-77
2021/10/18 03:20:02;;;;;;;0.00;0.00;;;8.70;61.20;;;;;;5073551;28;20078;-75
2021/10/18 03:22:28;;;;;;;0.00;0.00;;;8.80;61.30;;;;;;5073197;28;20028;-77
2021/10/18 03:24:54;;;;;;;0.00;0.00;;;8.70;61.60;;;;;;5073021;28;20021;-77
2021/10/18 03:27:21;;;;;;;0.00;0.00;;;8.70;61.60;;;;;;5055263;28;20123;-77
2021/10/18 03:29:47;;;;;;;0.00;0.00;;;8.70;61.70;;;;;;5055426;28;20029;-75
2021/10/18 03:32:13;;;;;;;0.00;0.00;;;8.70;61.60;;;;;;5072054;28;20487;-77
2021/10/18 03:34:39;;;;;;;0.00;0.00;;;8.70;61.60;;;;;;5055368;28;20052;-77
2021/10/18 03:37:05;;;;;;;0.00;0.00;;;8.70;61.60;;;;;;5055562;28;20083;-76
2021/10/18 03:39:31;;;;;;;0.00;0.00;;;8.70;61.60;;;;;;5055571;28;20032;-76
2021/10/18 03:41:57;;;;;;;0.00;0.00;;;8.70;61.70;;;;;;5073177;28;20072;-76
2021/10/18 03:44:23;;;;;;;0.00;0.00;;;8.60;61.70;;;;;;5073694;28;20028;-76
2021/10/18 03:46:48;;;;;;;0.00;0.00;;;8.60;61.70;;;;;;5072631;28;20036;-77
2021/10/18 03:49:14;;;;;;;0.00;0.00;;;8.60;61.80;;;;;;5075439;28;20063;-77
2021/10/18 03:51:40;;;;;;;0.00;0.00;;;8.60;61.70;;;;;;5076883;28;20024;-76
2021/10/18 03:54:06;;;;;;;0.00;0.00;;;8.60;62.10;;;;;;5059083;28;20050;-76
2021/10/18 03:56:32;;;;;;;0.00;0.00;;;8.60;62.00;;;;;;5059670;28;20036;-76
2021/10/18 03:58:57;;;;;;;0.00;0.00;;;8.60;61.90;;;;;;5076735;28;20066;-77
2021/10/18 04:01:24;;;;;;;0.00;0.00;;;8.60;61.80;;;;;;5076768;28;20119;-77
2021/10/18 04:03:49;;;;;;;0.00;0.00;;;8.70;61.90;;;;;;5076866;28;20180;-76
2021/10/18 04:06:15;;;;;;;0.00;0.00;;;8.60;61.80;;;;;;5076739;28;20037;-77
2021/10/18 04:08:41;;;;;;;0.00;0.00;;;8.60;61.90;;;;;;5059191;28;20415;-76
2021/10/18 04:11:07;;;;;;;0.00;0.00;;;8.60;61.80;;;;;;5058343;28;20101;-75
2021/10/18 04:13:32;;;;;;;0.00;0.00;;;8.60;61.90;;;;;;5076240;28;20032;-76
2021/10/18 04:15:58;;;;;;;0.00;0.00;;;8.60;61.90;;;;;;5058726;28;20032;-76
2021/10/18 04:18:24;;;;;;;0.00;0.00;;;8.70;61.90;;;;;;5058708;28;20024;-77
2021/10/18 04:20:50;;;;;;;0.00;0.00;;;8.60;61.90;;;;;;5058550;28;20483;-76
2021/10/18 04:23:17;;;;;;;0.00;0.00;;;8.70;61.90;;;;;;5076418;28;20020;-75
2021/10/18 04:25:43;;;;;;;0.00;0.00;;;8.70;61.90;;;;;;5076569;28;20027;-78
2021/10/18 04:28:09;;;;;;;0.00;0.00;;;8.70;61.90;;;;;;5058944;28;20362;-77
2021/10/18 04:30:34;;;;;;;0.00;0.00;;;8.70;61.80;;;;;;5076014;28;20025;-78
2021/10/18 04:33:00;;;;;;;0.00;0.00;;;8.70;61.80;;;;;;5075927;28;20468;-78
2021/10/18 04:35:26;;;;;;;0.00;0.00;;;8.70;61.80;;;;;;5076121;28;20025;-76
2021/10/18 04:37:52;;;;;;;0.00;0.00;;;8.70;61.80;;;;;;5075914;28;20039;-77
2021/10/18 04:40:17;;;;;;;0.00;0.00;;;8.70;61.80;;;;;;5075573;28;20033;-77
2021/10/18 04:42:43;;;;;;;0.00;0.00;;;8.70;61.90;;;;;;5064252;28;20020;-80
2021/10/18 04:45:10;;;;;;;0.00;0.00;;;8.70;61.90;;;;;;5051641;28;20029;-77
2021/10/18 04:47:48;;;;;;;0.00;0.00;;;8.70;61.90;;;;;;5059641;28;20061;-76
2021/10/18 04:50:14;;;;;;;0.00;0.00;;;8.70;61.90;;;;;;5061918;28;20055;-78
2021/10/18 04:52:40;;;;;;;0.00;0.00;;;8.70;61.90;;;;;;5057144;28;20508;-77
2021/10/18 04:55:06;;;;;;;0.00;0.00;;;8.70;61.90;;;;;;5076089;28;20025;-78
2021/10/18 04:57:32;;;;;;;0.00;0.00;;;8.80;61.90;;;;;;5069172;28;20025;-78
2021/10/18 04:59:57;;;;;;;0.00;0.00;;;8.80;61.80;;;;;;5055632;28;20031;-78
2021/10/18 05:02:23;;;;;;;0.00;0.00;;;8.80;61.80;;;;;;5055476;28;20449;-79
2021/10/18 05:04:49;;;;;;;0.00;0.00;;;8.80;62.40;;;;;;5037888;28;20535;-77
2021/10/18 05:07:14;;;;;;;0.00;0.00;;;8.80;61.70;;;;;;5037710;28;20035;-77
2021/10/18 05:09:40;;;;;;;0.00;0.00;;;8.80;62.30;;;;;;5055434;28;20029;-78
2021/10/18 05:12:06;;;;;;;0.00;0.00;;;8.90;61.60;;;;;;5055533;28;20025;-78
2021/10/18 05:14:31;;;;;;;0.00;0.00;;;8.90;61.50;;;;;;5055104;28;20485;-78
2021/10/18 05:16:57;;;;;;;0.00;0.00;;;9.00;61.50;;;;;;5055438;28;20461;-78
2021/10/18 05:19:23;;;;;;;0.00;0.00;;;9.00;61.40;;;;;;5037369;28;20032;-78
2021/10/18 05:21:49;;;;;;;0.00;0.00;;;9.00;61.40;;;;;;5037326;28;20060;-78
2021/10/18 05:24:15;;;;;;;0.00;0.00;;;9.10;61.30;;;;;;5055306;28;20060;-78
2021/10/18 05:26:41;;;;;;;0.00;0.00;;;9.10;61.30;;;;;;5055503;28;20389;-79
2021/10/18 05:29:07;;;;;;;0.00;0.00;;;9.20;61.20;;;;;;5054879;28;20100;-78
2021/10/18 05:31:33;;;;;;;1.08;0.00;;;9.20;61.00;;;;;;5055179;28;20051;-78
2021/10/18 05:33:59;;;;;;;0.00;0.00;;;9.30;61.50;;;;;;5036968;28;20457;-78
2021/10/18 05:39:30;;;;;;;0.00;0.00;;;9.50;60.50;;;;;;5045225;28;20045;-79
2021/10/18 05:41:56;;;;;;;0.00;0.00;;;9.50;60.20;;;;;;5071189;28;20051;-78
2021/10/18 05:44:23;;;;;;;0.00;0.00;;;9.50;60.10;;;;;;5074756;28;20036;-78
2021/10/18 05:46:49;;;;;;;0.00;0.00;;;9.60;60.10;;;;;;5074735;28;20028;-78
2021/10/18 05:49:15;;;;;;;0.00;0.00;;;9.60;60.10;;;;;;5074708;28;20040;-78
2021/10/18 05:51:40;;;;;;;0.00;0.00;;;9.60;60.00;;;;;;5074496;28;20098;-78
2021/10/18 05:54:07;;;;;;;0.00;0.00;;;9.60;60.00;;;;;;5056876;28;20030;-78
2021/10/18 05:56:33;;;;;;;0.00;0.00;;;9.60;59.90;;;;;;5074834;28;20024;-78
2021/10/18 05:58:59;;;;;;;0.00;0.00;;;9.60;60.40;;;;;;5074557;28;20112;-78
2021/10/18 06:01:25;;;;;;;0.00;0.00;;;9.60;59.90;;;;;;5074648;28;20025;-78
2021/10/18 06:03:51;;;;;;;0.00;0.00;;;9.70;59.90;;;;;;5074352;28;20419;-78
2021/10/18 06:06:17;;;;;;;0.00;0.00;;;9.80;60.00;;;;;;5074516;28;20017;-79
2021/10/18 06:08:43;;;;;;;0.00;0.00;;;9.90;59.80;;;;;;5074657;28;20429;-79
2021/10/18 06:11:10;;;;;;;0.00;0.00;;;10.00;59.50;;;;;;5055632;28;20123;-78
2021/10/18 06:13:35;;;;;;;0.00;0.00;;;10.10;59.30;;;;;;5073708;28;20384;-78
2021/10/18 06:16:01;;;;;;;0.00;0.00;;;10.20;58.90;;;;;;5038351;28;20025;-77
2021/10/18 06:18:27;;;;;;;0.00;0.00;;;10.20;58.70;;;;;;5060471;28;20078;-78
2021/10/18 06:20:55;;;;;;;0.00;0.00;;;10.20;58.70;;;;;;5061693;28;20040;-79
2021/10/18 06:23:33;;;;;;;0.00;0.00;;;10.20;58.60;;;;;;5034594;28;20029;-79
2021/10/18 06:25:59;;;;;;;0.00;0.00;;;10.20;58.60;;;;;;5034383;28;20381;-79
2021/10/18 06:28:25;;;;;;;0.00;0.00;;;10.30;58.50;;;;;;5016531;28;20037;-80
2021/10/18 06:30:51;;;;;;;0.00;0.00;;;10.30;58.50;;;;;;5034343;28;20454;-73
2021/10/18 06:33:19;;;;;;;0.00;0.00;;;10.30;58.50;;;;;;5033971;28;20466;-79
2021/10/18 06:35:45;;;;;;;0.00;0.00;;;10.40;58.50;;;;;;5016465;28;20052;-78
2021/10/18 06:38:19;;;;;;;0.00;0.00;;;10.70;58.30;;;;;;5034129;28;20466;-78
2021/10/18 06:40:46;;;;;;;;;;;10.90;57.90;;;;;;5034528;28;20049;-78
2021/10/18 06:43:12;;;;;;;0.00;0.00;;;11.10;57.70;;;;;;5032817;28;19905;-78
2021/10/18 06:45:39;;;;;;;0.00;0.00;;;11.20;57.10;;;;;;5016401;28;20079;-78
2021/10/18 06:48:07;;;;;;;0.00;0.00;;;11.20;56.70;;;;;;5033902;28;20030;-78
2021/10/18 06:50:33;;;;;;;0.00;0.00;;;11.20;56.40;;;;;;5033928;28;20032;-78
2021/10/18 06:52:59;;;;;;;0.00;0.00;;;11.20;56.50;;;;;;5016727;28;20421;-78
2021/10/18 06:55:27;;;;;;;0.00;0.00;;;11.30;56.50;;;;;;5015810;28;20033;-78
2021/10/18 06:57:54;;;;;;;0.00;0.00;;;11.40;56.40;;;;;;5033286;28;20501;-78
2021/10/18 07:00:19;;;;;;;0.00;0.00;;;11.50;56.10;;;;;;5000998;28;20216;-79
2021/10/18 07:02:45;;;;;;;0.00;0.00;;;11.60;55.80;;;;;;5016276;28;20030;-79
2021/10/18 07:05:11;;;;;;;0.00;0.00;;;11.70;55.60;;;;;;5016875;28;20032;-79
2021/10/18 07:07:37;;;;;;;0.00;0.00;;;11.80;55.40;;;;;;5033460;28;20029;-79
2021/10/18 07:10:07;;;;;;;0.00;0.00;;;11.90;55.30;;;;;;5034255;28;20026;-78
2021/10/18 07:12:35;;;;;;;0.00;0.00;;;12.00;54.90;;;;;;5032836;28;20037;-78
2021/10/18 07:15:02;;;;;;;0.00;0.00;;;12.10;54.70;;;;;;5033926;28;20030;-78
2021/10/18 07:17:29;;;;;;;0.00;0.00;;;12.20;54.50;;;;;;5034144;28;20029;-78
2021/10/18 07:19:56;;;;;;;0.00;0.00;;;12.40;54.30;;;;;;5034050;28;20029;-78
2021/10/18 07:22:28;;;;;;;0.00;0.00;;;12.50;53.90;;;;;;5034105;28;20355;-79
2021/10/18 07:24:54;;;;;;;0.00;0.00;;;12.70;53.60;;;;;;5037934;28;20064;-79
2021/10/18 07:27:21;;;;;;;0.00;0.00;;;12.70;53.30;;;;;;5020069;28;20083;-78
2021/10/18 07:29:47;;;;;;;0.00;0.00;;;12.60;52.90;;;;;;5037151;28;20124;-78
2021/10/18 07:32:12;;;;;;;0.00;0.00;;;12.50;52.80;;;;;;5023256;28;20065;-79
2021/10/18 07:34:38;;;;;;;0.00;0.00;;;12.40;52.90;;;;;;5038849;28;20029;-78
2021/10/18 07:37:07;;;;;;;0.00;0.00;;;12.50;53.10;;;;;;5039303;28;20030;-79
2021/10/18 07:39:33;;;;;;;0.00;0.00;;;12.60;53.10;;;;;;5020769;28;20025;-79
2021/10/18 07:41:59;;;;;;;0.00;0.00;;;12.80;52.90;;;;;;5037411;28;20056;-80
2021/10/18 07:44:26;;;;;;;0.00;0.00;;;12.90;52.50;;;;;;5037531;28;20055;-77
2021/10/18 07:46:59;;;;;;;0.00;0.00;;;13.10;52.40;;;;;;5020261;28;20371;-79
2021/10/18 07:49:27;;;;;;;0.00;0.00;;;13.20;52.00;;;;;;5035846;28;20029;-80
2021/10/18 07:51:54;;;;;;;0.00;0.00;;;13.30;51.60;;;;;;5041065;28;20483;-79
2021/10/18 07:54:21;;;;;;;0.00;0.00;;;13.40;51.20;;;;;;5039526;28;20025;-80
2021/10/18 07:56:47;;;;;;;0.00;0.00;;;13.40;51.20;;;;;;5076063;28;20036;-78
2021/10/18 07:59:12;;;;;;;0.00;0.00;;;13.40;51.00;;;;;;5076852;28;20388;-78
2021/10/18 08:01:38;;;;;;;0.00;0.00;;;13.50;50.80;;;;;;5077056;28;20029;-80
2021/10/18 08:04:04;;;;;;;0.00;0.00;;;13.60;50.70;;;;;;5074011;28;20025;-80
2021/10/18 08:06:33;;;;;;;0.00;0.00;;;13.70;50.60;;;;;;5060430;28;20020;-79
2021/10/18 08:09:00;;;;;;;0.00;0.00;;;13.90;50.40;;;;;;5077411;28;20503;-82
2021/10/18 08:11:27;;;;;;;0.00;0.00;;;14.00;50.00;;;;;;5077089;28;20476;-80
2021/10/18 08:13:53;;;;;;;0.00;0.00;;;14.20;50.10;;;;;;5058919;28;20035;-78
2021/10/18 08:16:19;;;;;;;0.00;0.00;;;14.20;49.60;;;;;;5076577;28;20025;-78
2021/10/18 08:18:44;;;;;;;0.00;0.00;;;14.20;49.20;;;;;;5076269;28;20025;-80
2021/10/18 08:21:11;;;;;;;0.00;0.00;;;14.20;49.20;;;;;;5058548;28;20491;-77
2021/10/18 08:23:38;;;;;;;0.00;0.00;;;14.20;49.10;;;;;;5058540;28;20032;-78
2021/10/18 08:26:05;;;;;;;0.00;0.00;;;14.20;49.20;;;;;;5058729;28;20031;-79
2021/10/18 08:28:32;;;;;;;0.00;0.00;;;14.20;49.00;;;;;;5074869;28;20040;-80
2021/10/18 08:30:58;;;;;;;0.00;0.00;;;14.30;49.00;;;;;;5076416;28;20416;-81
2021/10/18 08:33:25;;;;;;;0.00;0.00;;;14.40;48.90;;;;;;5058698;28;20025;-79
2021/10/18 08:35:50;;;;;;;0.00;0.00;;;14.40;48.70;;;;;;5075114;28;20028;-79
2021/10/18 08:41:19;;;;;;;0.00;0.00;;;14.50;48.40;;;;;;5076769;28;20063;-82
2021/10/18 08:46:24;;;;;;;0.00;0.00;;;14.80;48.50;;;;;;5076554;28;20025;-80
2021/10/18 08:48:54;;;;;;;0.00;0.00;;;15.00;48.40;;;;;;5058376;28;20040;-79
2021/10/18 08:51:21;;;;;;;0.00;0.00;;;15.20;48.00;;;;;;5075851;28;20149;-79
2021/10/18 08:53:47;;;;;;;0.00;0.00;;;15.60;47.70;;;;;;5076083;28;20028;-79
2021/10/18 08:56:13;;;;;;;0.00;0.00;;;16.00;47.10;;;;;;5075670;28;20090;-77
2021/10/18 08:58:39;;;;;;;0.00;0.00;;;16.60;46.60;;;;;;5075705;28;20387;-78
2021/10/18 09:01:05;;;;;;;0.00;0.00;;;17.20;45.60;;;;;;5075673;28;20097;-79
2021/10/18 09:03:32;;;;;;;0.00;0.00;;;17.70;44.70;;;;;;5062797;28;20033;-80
2021/10/18 09:06:18;;;;;;;0.00;0.00;;;17.90;44.00;;;;;;5045512;28;20018;-79
2021/10/18 09:08:50;;;;;;;0.00;0.00;;;18.00;43.60;;;;;;5045399;28;20031;-80
2021/10/18 09:11:22;;;;;;;0.00;0.00;;;18.10;43.20;;;;;;5037850;28;20036;-78
2021/10/18 09:13:50;;;;;;;0.00;0.00;;;18.20;43.10;;;;;;5035552;28;20030;-79
2021/10/18 09:16:43;;;;;;;0.00;0.00;;;18.20;42.90;;;;;;5043195;28;20453;-80
2021/10/18 09:19:26;;;;;;;0.00;0.00;;;18.40;42.80;;;;;;5029447;28;20278;-78
2021/10/18 09:21:54;;;;;;;0.00;0.00;;;18.60;42.70;;;;;;5030668;28;20408;-78
2021/10/18 09:24:29;;;;;;;0.00;0.00;;;18.90;42.40;;;;;;5027405;28;20027;-79
2021/10/18 09:26:58;;;;;;;0.00;0.00;;;19.00;41.90;;;;;;5042418;28;20033;-80
2021/10/18 09:29:34;;;;;;;0.00;0.00;;;19.00;41.90;;;;;;5024850;28;20029;-82
2021/10/18 09:32:03;;;;;;;0.00;0.00;;;18.80;41.70;;;;;;5028995;28;20063;-78
2021/10/18 09:34:34;;;;;;;0.00;0.00;;;18.30;41.70;;;;;;5052005;28;20017;-79
2021/10/18 09:37:07;;;;;;;0.00;0.00;;;17.80;42.30;;;;;;5054479;28;20037;-79
2021/10/18 09:39:37;;;;;;;0.00;0.00;;;17.20;43.00;;;;;;5045895;28;20021;-79
2021/10/18 09:45:27;;;;;;;0.00;0.00;;;16.30;44.30;;;;;;5044475;28;20029;-78
2021/10/18 10:53:27;;;;;;;0.00;0.00;;;14.00;50.00;;;;;;5053781;28;20029;-80
2021/10/18 10:55:56;;;;;;;0.00;0.00;;;13.90;50.30;;;;;;5035818;28;20029;-77
2021/10/18 10:58:32;;;;;;;0.00;0.00;;;13.80;50.70;;;;;;5053188;28;20032;-79
2021/10/18 11:00:59;;;;;;;0.00;0.00;;;13.70;50.70;;;;;;5053281;28;20032;-78
2021/10/18 11:03:35;;;;;;;0.00;0.00;;;13.70;50.90;;;;;;5053337;28;20049;-79
2021/10/18 11:06:04;;;;;;;0.00;0.00;;;13.70;51.00;;;;;;5054592;28;20029;-79
2021/10/18 11:08:36;;;;;;;0.00;0.00;;;13.70;51.10;;;;;;5035370;28;20033;-80
2021/10/18 11:11:21;;;;;;;0.00;0.00;;;13.70;51.20;;;;;;5053609;28;20111;-78
2021/10/18 11:13:49;;;;;;;;;;;13.70;51.20;;;;;;5053860;28;20025;-79
2021/10/18 11:16:17;;;;;;;0.00;0.00;;;13.60;51.10;;;;;;5053358;28;20324;-79
2021/10/18 11:18:48;;;;;;;0.00;0.00;;;13.60;51.10;;;;;;5053347;28;20025;-78
2021/10/18 11:21:20;;;;;;;0.00;0.00;;;13.50;51.30;;;;;;5053071;28;20021;-78
2021/10/18 11:24:04;;;;;;;0.00;0.00;;;13.60;51.60;;;;;;5035220;28;20025;-78
2021/10/18 11:26:36;;;;;;;0.00;0.00;;;13.70;51.80;;;;;;5058553;28;20035;-79
2021/10/18 11:29:10;;;;;;;0.00;0.00;;;13.90;51.70;;;;;;5073785;28;20036;-79
2021/10/18 11:31:44;;;;;;;0.00;0.00;;;14.10;51.50;;;;;;5073847;28;20023;-78
2021/10/18 11:34:11;;;;;;;0.00;0.00;;;14.20;51.40;;;;;;5073509;28;20073;-79
2021/10/18 11:36:45;;;;;;;0.00;0.00;;;14.30;51.10;;;;;;5056292;28;20025;-79
2021/10/18 11:39:17;;;;;;;0.00;0.00;;;14.40;51.00;;;;;;5055730;28;20037;-78
2021/10/18 11:41:58;;;;;;;0.00;0.00;;;14.50;50.70;;;;;;5074340;28;20068;-79
2021/10/18 11:44:42;;;;;;;0.00;0.00;;;14.70;50.50;;;;;;5073458;28;20028;-78
2021/10/18 11:47:23;;;;;;;0.00;0.00;;;15.00;50.00;;;;;;5073247;28;20028;-79
2021/10/18 11:50:22;;;;;;;0.00;0.00;;;15.10;49.70;;;;;;5073034;28;20263;-79
2021/10/18 11:53:23;;;;;;;0.00;0.00;;;15.20;49.30;;;;;;5073120;28;20427;-79
2021/10/18 11:55:50;;;;;;;0.00;0.00;;;15.20;49.10;;;;;;5054674;28;20029;-78
2021/10/18 11:58:21;;;;;;;0.00;0.00;;;15.20;49.00;;;;;;5055491;28;20115;-78
2021/10/18 12:00:55;;;;;;;0.00;0.00;;;15.10;49.00;;;;;;5073131;28;20025;-78
2021/10/18 12:03:23;;;;;;;0.00;0.00;;;15.00;49.20;;;;;;5073778;28;20105;-79
2021/10/18 12:05:52;;;;;;;0.00;0.00;;;14.90;49.30;;;;;;5072944;28;20384;-79
2021/10/18 12:08:20;;;;;;;0.00;0.00;;;14.80;49.40;;;;;;5072604;28;20051;-78
2021/10/18 12:10:51;;;;;;;0.00;0.00;;;14.70;49.50;;;;;;5075359;28;20067;-78
2021/10/18 12:13:28;;;;;;;0.00;0.00;;;14.60;49.70;;;;;;5076543;28;20036;-79
2021/10/18 12:16:07;;;;;;;0.00;0.00;;;14.70;50.00;;;;;;5076924;28;20029;-78
2021/10/18 12:18:42;;;;;;;0.00;0.00;;;14.70;49.80;;;;;;5075555;28;20029;-81
2021/10/18 12:21:19;;;;;;;0.00;0.00;;;14.70;49.80;;;;;;5077136;28;20108;-79
2021/10/18 12:23:45;;;;;;;0.00;0.00;;;14.60;49.70;;;;;;5066402;28;20039;-79
2021/10/18 12:26:17;;;;;;;0.00;0.00;;;14.60;49.70;;;;;;5055909;28;20107;-77
2021/10/18 12:28:47;;;;;;;0.00;0.00;;;14.50;49.70;;;;;;5039126;28;20094;-79
2021/10/18 12:31:32;;;;;;;0.00;0.00;;;14.40;50.00;;;;;;5056808;28;20350;-79
2021/10/18 12:34:05;;;;;;;;;;;14.40;49.90;;;;;;5056782;28;20025;-77
2021/10/18 12:36:32;;;;;;;0.00;0.00;;;14.30;49.80;;;;;;5056847;28;19904;-78
2021/10/18 12:39:00;;;;;;;0.00;0.00;;;14.30;49.80;;;;;;5056116;28;20155;-78
2021/10/18 12:41:26;;;;;;;0.00;0.00;;;14.20;50.10;;;;;;5035145;28;20536;-77
2021/10/18 12:43:51;;;;;;;0.00;0.00;;;14.30;50.30;;;;;;5035329;28;20029;-78
2021/10/18 12:46:26;;;;;;;0.00;0.00;;;14.30;50.40;;;;;;5036036;28;20040;-80
2021/10/18 12:48:59;;;;;;;0.00;0.00;;;14.20;50.20;;;;;;5036473;28;20049;-79
2021/10/18 12:51:46;;;;;;;0.00;0.00;;;14.20;50.30;;;;;;5035897;28;20033;-79
2021/10/18 12:54:25;;;;;;;0.00;0.00;;;14.20;50.30;;;;;;5035053;28;20097;-78
2021/10/18 12:56:57;;;;;;;0.00;0.00;;;14.20;50.50;;;;;;5036363;28;20501;-79
2021/10/18 12:59:23;;;;;;;0.00;0.00;;;14.20;50.40;;;;;;5036438;28;20029;-78
2021/10/18 13:02:19;;;;;;;0.00;0.00;;;14.30;50.50;;;;;;5038152;28;20029;-78
2021/10/18 13:05:19;;;;;;;0.00;0.00;;;14.20;50.50;;;;;;5056347;28;20021;-78
2021/10/18 13:07:49;;;;;;;0.00;0.00;;;14.20;50.60;;;;;;5055511;28;20117;-77
2021/10/18 13:10:15;;;;;;;0.00;0.00;;;14.20;50.70;;;;;;5050314;28;20389;-79
2021/10/18 13:12:42;;;;;;;0.00;0.00;;;14.20;50.70;;;;;;5029929;28;20026;-78
2021/10/18 13:15:09;;;;;;;0.00;0.00;;;14.20;50.80;;;;;;5015920;28;20075;-78
2021/10/18 13:17:35;;;;;;;0.00;0.00;;;14.20;50.80;;;;;;5015973;28;20034;-80
2021/10/18 13:20:00;;;;;;;0.00;0.00;;;14.20;50.70;;;;;;5015635;28;20029;-79
2021/10/18 13:22:26;;;;;;;0.00;0.00;;;14.20;50.80;;;;;;5014378;28;20026;-79
2021/10/18 13:24:52;;;;;;;0.00;0.00;;;14.30;50.90;;;;;;5033252;28;20157;-80
2021/10/18 13:27:19;;;;;;;0.00;0.00;;;14.40;50.80;;;;;;5035239;28;20033;-80
2021/10/18 13:29:46;;;;;;;0.00;0.00;;;14.40;50.70;;;;;;5035258;28;20037;-81
2021/10/18 13:32:12;;;;;;;0.00;0.00;;;14.50;50.60;;;;;;5034280;28;20075;-78
2021/10/18 13:34:40;;;;;;;0.00;0.00;;;14.40;50.60;;;;;;5035267;28;20114;-79
2021/10/18 13:37:06;;;;;;;0.00;0.00;;;14.30;50.50;;;;;;5033985;28;20030;-78
2021/10/18 13:39:32;;;;;;;0.00;0.00;;;14.30;50.60;;;;;;5034921;28;20132;-79
2021/10/18 13:41:57;;;;;;;0.00;0.00;;;14.20;50.70;;;;;;5033520;28;20049;-79
2021/10/18 13:44:23;;;;;;;0.00;0.00;;;14.20;50.80;;;;;;5033767;28;20085;-79
2021/10/18 13:46:49;;;;;;;0.00;0.00;;;14.10;50.90;;;;;;5050277;28;20025;-79
2021/10/18 13:49:15;;;;;;;0.00;0.00;;;14.00;50.90;;;;;;5035085;28;20030;-77
2021/10/18 13:51:41;;;;;;;0.00;0.00;;;14.00;51.10;;;;;;5027431;28;20132;-78
2021/10/18 13:54:07;;;;;;;0.00;0.00;;;13.90;51.20;;;;;;5034954;28;20021;-78
2021/10/18 13:56:37;;;;;;;0.00;0.00;;;13.90;51.20;;;;;;5034872;28;20120;-78
2021/10/18 13:59:03;;;;;;;0.00;0.00;;;13.80;51.30;;;;;;5034820;28;20033;-78
2021/10/18 14:01:29;;;;;;;0.05;0.00;;;13.80;51.40;;;;;;5054319;28;20036;-78
2021/10/18 14:03:55;;;;;;;0.00;0.00;;;13.70;51.60;;;;;;5053383;28;20033;-78
2021/10/18 14:06:21;;;;;;;0.20;0.00;;;13.60;51.70;;;;;;5054636;28;20365;-79
2021/10/18 14:08:47;;;;;;;0.00;0.00;;;13.60;51.80;;;;;;5054261;28;20037;-79
2021/10/18 14:11:14;;;;;;;0.20;0.10;;;13.60;51.80;;;;;;5053210;28;20036;-78
2021/10/18 14:13:39;;;;;;;0.00;0.00;;;13.50;51.90;;;;;;5042305;28;20413;-84